메인 페이지
METAR-TAF:

METAR-TAF

공항 :

Afonsos

리우데자네이루, 리우데자네이루, 브라질

위도: 22-52S, 경도: 043-22W, 고도: 34m

현재 날씨관측

예보는 1 시간 12분 전, 13:00시(UTC)에 발표되었습니다.
3kt
온도 26°C
습도 65%
기압 1016 hPa
시정 10km 이상
1500m 미만 상공 구름 및 적란운 없음

METAR: SBAF 171300Z 17003KT CAVOK 26/19 Q1016

시각: 11:12 (14:12 UTC)

예보

예보는 5 시간 12분 전, 09:00시(UTC)에 발표되었습니다.
예보 대상 시간: 17일 12시부터 17일 24시까지 (UTC)
5kt
시정 10km 이상
1500m 미만 상공 구름 및 적란운 없음
전환 중
17일 14시부터 17일 16시까지 (UTC)
6kt

TAF: SBAF 170900Z 1712/1724 36005KT CAVOK TX28/1718Z TN24/1724Z BECMG 1714/1716 10006KT RMK PED

4,000개 이상의 공항 관측 자료 및 예보 (METAR 및 TAF 보고).

지도상에서 검색 가능한 기상관측소가 노란 점과 빨간 점으로 표시되어 있습니다.

기상관측소 명을 보려면 표시 위로 마우스를 이동하세요.

날씨 관측과 예보를 보려면 클릭하세요.

지도 변경 : 확대하려면 엑스 표시가 있는 녹색 버튼, 축소하려면 빼기 표시가 있는 녹색 버튼, 다음 페이지의 지도를 보려면 녹색 화살표를 클릭하세요.


METAR-TAF: